createdAt,value
2019-04-07T00:01:43.396Z,8.52
2019-04-07T00:12:43.596Z,8.21
2019-04-07T00:23:40.833Z,8.06
2019-04-07T00:34:41.470Z,7.57
2019-04-07T00:45:42.608Z,7.34
2019-04-07T00:56:43.851Z,7.19
2019-04-07T01:07:45.380Z,6.93
2019-04-07T01:18:45.753Z,6.60
2019-04-07T01:29:45.672Z,6.47
2019-04-07T01:40:49.579Z,6.32
2019-04-07T01:51:46.496Z,5.99
2019-04-07T02:02:49.429Z,5.97
2019-04-07T02:13:47.397Z,6.03
2019-04-07T02:24:48.086Z,5.72
2019-04-07T02:35:52.514Z,5.41
2019-04-07T02:46:51.576Z,5.41
2019-04-07T02:57:51.125Z,5.11
2019-04-07T03:08:55.911Z,5.03
2019-04-07T03:19:57.490Z,4.80
2019-04-07T03:30:59.098Z,4.64
2019-04-07T03:42:01.050Z,4.47
2019-04-07T03:53:01.734Z,4.54
2019-04-07T04:04:04.104Z,4.41
2019-04-07T04:15:04.000Z,4.43
2019-04-07T04:26:06.675Z,4.36
2019-04-07T04:37:06.376Z,4.34
2019-04-07T04:48:08.970Z,4.26
2019-04-07T04:59:13.308Z,4.50
2019-04-07T05:10:13.383Z,4.64
2019-04-07T05:21:13.910Z,4.69
2019-04-07T05:32:14.820Z,5.18
2019-04-07T05:43:16.441Z,5.70
2019-04-07T05:54:19.820Z,5.96
2019-04-07T06:05:23.168Z,6.36
2019-04-07T06:16:23.772Z,6.96
2019-04-07T06:27:25.503Z,7.47
2019-04-07T06:38:34.234Z,7.78
2019-04-07T06:49:31.640Z,8.36
2019-04-07T07:00:31.569Z,8.91
2019-04-07T07:11:32.388Z,9.35
2019-04-07T07:22:33.489Z,10.11
2019-04-07T07:33:41.467Z,10.47
2019-04-07T07:44:41.821Z,10.74
2019-04-07T07:55:43.558Z,11.67
2019-04-07T08:06:45.378Z,11.98
2019-04-07T08:17:42.066Z,12.28
2019-04-07T08:28:45.268Z,13.03
2019-04-07T08:39:40.608Z,13.41
2019-04-07T08:50:42.046Z,14.16
2019-04-07T09:01:40.458Z,14.42
2019-04-07T09:12:32.244Z,14.54
2019-04-07T09:23:29.467Z,14.90
2019-04-07T09:34:30.585Z,15.30
2019-04-07T09:45:27.662Z,15.66
2019-04-07T09:56:21.739Z,15.28
2019-04-07T10:07:22.940Z,15.59
2019-04-07T10:18:07.688Z,15.63
2019-04-07T10:29:07.158Z,15.88
2019-04-07T10:40:18.863Z,16.38
2019-04-07T10:51:13.733Z,15.94
2019-04-07T11:02:18.088Z,16.89
2019-04-07T11:13:15.821Z,16.66
2019-04-07T11:24:18.752Z,17.53
2019-04-07T11:35:23.274Z,18.71
2019-04-07T11:46:20.924Z,18.40
2019-04-07T11:57:24.252Z,20.19
2019-04-07T12:08:17.379Z,19.87
2019-04-07T12:19:16.297Z,20.54
2019-04-07T12:30:14.372Z,20.27
2019-04-07T12:41:19.101Z,19.98
2019-04-07T12:52:17.426Z,18.82
2019-04-07T13:03:18.202Z,21.05
2019-04-07T13:14:13.952Z,19.68
2019-04-07T13:25:18.804Z,20.56
2019-04-07T13:36:14.914Z,19.48
2019-04-07T13:47:10.694Z,18.35
2019-04-07T13:58:12.489Z,18.24
2019-04-07T14:09:11.480Z,18.31
2019-04-07T14:20:11.504Z,18.39
2019-04-07T14:31:11.799Z,17.85
2019-04-07T14:42:13.136Z,17.54
2019-04-07T14:53:11.011Z,17.10
2019-04-07T15:04:21.527Z,17.20
2019-04-07T15:15:20.356Z,17.30
2019-04-07T15:26:18.015Z,16.93
2019-04-07T15:37:22.916Z,16.52
2019-04-07T15:48:25.726Z,16.22
2019-04-07T15:59:29.407Z,15.99
2019-04-07T16:10:32.093Z,15.73
2019-04-07T16:21:28.945Z,15.49
2019-04-07T16:32:31.081Z,15.30
2019-04-07T16:43:33.791Z,14.41
2019-04-07T16:54:30.202Z,13.41
2019-04-07T17:05:31.152Z,13.18
2019-04-07T17:16:26.903Z,13.00
2019-04-07T17:27:26.335Z,12.85
2019-04-07T17:38:28.021Z,12.66
2019-04-07T17:49:30.948Z,12.70
2019-04-07T18:00:36.346Z,12.52
2019-04-07T18:11:39.904Z,12.48
2019-04-07T18:22:28.629Z,12.18
2019-04-07T18:33:31.357Z,12.21
2019-04-07T18:44:35.352Z,11.95
2019-04-07T18:55:37.160Z,11.61
2019-04-07T19:06:42.167Z,11.32
2019-04-07T19:17:44.791Z,11.06
2019-04-07T19:28:42.318Z,10.69
2019-04-07T19:39:41.212Z,10.31
2019-04-07T19:50:34.975Z,10.47
2019-04-07T20:01:33.622Z,10.58
2019-04-07T20:12:37.148Z,10.46
2019-04-07T20:23:36.034Z,10.58
2019-04-07T20:34:42.860Z,10.83
2019-04-07T20:45:41.498Z,10.91
2019-04-07T20:56:19.063Z,10.87
2019-04-07T21:06:57.973Z,10.75
2019-04-07T21:18:00.221Z,10.63
2019-04-07T21:29:07.409Z,10.37
2019-04-07T21:40:07.635Z,9.92
2019-04-07T21:51:14.285Z,9.45
2019-04-07T22:02:15.326Z,9.24
2019-04-07T22:13:14.247Z,9.29
2019-04-07T22:24:01.342Z,9.27
2019-04-07T22:35:06.524Z,9.43
2019-04-07T22:46:14.762Z,9.29
2019-04-07T22:57:15.062Z,9.55
2019-04-07T23:08:14.604Z,9.56
2019-04-07T23:19:12.624Z,9.35
2019-04-07T23:30:17.266Z,9.05
2019-04-07T23:41:18.168Z,8.73
2019-04-07T23:52:19.909Z,8.48
